createdAt,value
2018-06-09T00:00:27.724Z,12.51
2018-06-09T00:01:27.606Z,12.45
2018-06-09T00:02:27.480Z,12.57
2018-06-09T00:03:27.359Z,12.54
2018-06-09T00:04:27.232Z,12.49
2018-06-09T00:05:27.111Z,12.54
2018-06-09T00:06:26.990Z,12.59
2018-06-09T00:07:26.865Z,12.64
2018-06-09T00:08:26.745Z,12.60
2018-06-09T00:09:26.622Z,12.56
2018-06-09T00:10:26.501Z,12.64
2018-06-09T00:11:26.375Z,12.62
2018-06-09T00:12:26.252Z,12.62
2018-06-09T00:13:26.130Z,12.64
2018-06-09T00:14:26.006Z,12.63
2018-06-09T00:15:25.886Z,12.64
2018-06-09T00:16:25.765Z,12.66
2018-06-09T00:17:25.639Z,12.69
2018-06-09T00:18:25.516Z,12.66
2018-06-09T00:19:25.395Z,12.74
2018-06-09T00:20:25.272Z,12.67
2018-06-09T00:21:25.150Z,12.70
2018-06-09T00:22:25.028Z,12.77
2018-06-09T00:23:24.906Z,12.77
2018-06-09T00:24:24.783Z,12.79
2018-06-09T00:25:24.662Z,12.74
2018-06-09T00:26:24.539Z,12.74
2018-06-09T00:27:24.416Z,12.77
2018-06-09T00:28:24.292Z,12.74
2018-06-09T00:29:24.173Z,12.71
2018-06-09T00:30:24.054Z,12.74
2018-06-09T00:31:23.966Z,12.63
2018-06-09T00:32:23.804Z,12.51
2018-06-09T00:33:23.682Z,12.48
2018-06-09T00:34:23.559Z,12.38
2018-06-09T00:35:23.438Z,12.33
2018-06-09T00:36:23.315Z,12.34
2018-06-09T00:37:23.192Z,12.30
2018-06-09T00:38:23.069Z,12.37
2018-06-09T00:39:22.946Z,12.38
2018-06-09T00:40:22.831Z,12.38
2018-06-09T00:41:22.704Z,12.49
2018-06-09T00:42:22.581Z,12.45
2018-06-09T00:43:22.458Z,12.46
2018-06-09T00:44:22.335Z,12.51
2018-06-09T00:45:22.216Z,12.41
2018-06-09T00:46:22.091Z,12.37
2018-06-09T00:47:21.967Z,12.41
2018-06-09T00:48:21.846Z,12.44
2018-06-09T00:49:21.722Z,12.29
2018-06-09T00:50:21.603Z,12.31
2018-06-09T00:51:21.481Z,12.33
2018-06-09T00:52:21.355Z,12.41
2018-06-09T00:53:21.233Z,12.39
2018-06-09T00:54:21.110Z,12.38
2018-06-09T00:55:20.990Z,12.39
2018-06-09T00:56:20.869Z,12.34
2018-06-09T00:57:20.743Z,12.37
2018-06-09T00:58:20.626Z,12.38
2018-06-09T00:59:20.498Z,12.41
2018-06-09T01:00:20.381Z,12.29
2018-06-09T01:01:20.255Z,12.29
2018-06-09T01:02:20.134Z,12.33
2018-06-09T01:03:20.010Z,12.31
2018-06-09T01:04:19.889Z,12.42
2018-06-09T01:05:19.767Z,12.37
2018-06-09T01:06:19.642Z,12.45
2018-06-09T01:07:19.522Z,12.45
2018-06-09T01:08:19.400Z,12.52
2018-06-09T01:09:19.280Z,12.54
2018-06-09T01:10:19.152Z,12.45
2018-06-09T01:11:19.030Z,12.37
2018-06-09T01:12:18.909Z,12.38
2018-06-09T01:13:18.789Z,12.27
2018-06-09T01:14:18.665Z,12.21
2018-06-09T01:15:18.542Z,12.05
2018-06-09T01:16:18.419Z,12.11
2018-06-09T01:17:18.298Z,12.09
2018-06-09T01:18:18.172Z,12.23
2018-06-09T01:19:18.054Z,12.24
2018-06-09T01:20:17.929Z,12.19
2018-06-09T01:21:17.808Z,12.06
2018-06-09T01:22:17.684Z,11.97
2018-06-09T01:23:17.563Z,11.82
2018-06-09T01:24:17.437Z,11.78
2018-06-09T01:25:17.317Z,11.68
2018-06-09T01:26:17.195Z,11.54
2018-06-09T01:27:17.070Z,11.52
2018-06-09T01:28:16.948Z,11.47
2018-06-09T01:29:16.827Z,11.43
2018-06-09T01:30:16.702Z,11.44
2018-06-09T01:31:16.579Z,11.31
2018-06-09T01:32:16.457Z,11.35
2018-06-09T01:33:16.335Z,11.32
2018-06-09T01:34:16.208Z,11.28
2018-06-09T01:35:16.088Z,11.31
2018-06-09T01:36:15.966Z,11.39
2018-06-09T01:37:15.843Z,11.35
2018-06-09T01:38:15.722Z,11.35
2018-06-09T01:39:15.598Z,11.32
2018-06-09T01:40:15.472Z,11.17
2018-06-09T01:41:15.348Z,11.24
2018-06-09T01:42:15.227Z,11.27
2018-06-09T01:43:15.104Z,11.21
2018-06-09T01:44:14.980Z,11.29
2018-06-09T01:45:14.851Z,11.28
2018-06-09T01:46:14.743Z,11.24
2018-06-09T01:47:14.607Z,11.28
2018-06-09T01:48:14.482Z,11.31
2018-06-09T01:49:14.360Z,11.29
2018-06-09T01:50:14.237Z,11.34
2018-06-09T01:51:14.114Z,11.34
2018-06-09T01:52:13.988Z,11.38
2018-06-09T01:53:13.867Z,11.38
2018-06-09T01:54:13.742Z,11.31
2018-06-09T01:55:13.620Z,11.32
2018-06-09T01:56:13.498Z,11.38
2018-06-09T01:57:13.372Z,11.35
2018-06-09T01:58:13.247Z,11.43
2018-06-09T01:59:13.121Z,11.46
2018-06-09T02:00:13.000Z,11.46
2018-06-09T02:01:12.879Z,11.41
2018-06-09T02:02:12.751Z,11.46
2018-06-09T02:03:12.630Z,11.44
2018-06-09T02:04:12.509Z,11.44
2018-06-09T02:05:12.383Z,11.41
2018-06-09T02:06:12.256Z,11.35
2018-06-09T02:07:12.137Z,11.49
2018-06-09T02:08:12.013Z,11.36
2018-06-09T02:09:11.886Z,11.43
2018-06-09T02:10:11.764Z,11.41
2018-06-09T02:11:11.638Z,11.47
2018-06-09T02:12:11.516Z,11.36
2018-06-09T02:13:11.393Z,11.38
2018-06-09T02:14:11.280Z,11.38
2018-06-09T02:15:11.144Z,11.49
2018-06-09T02:16:11.020Z,11.39
2018-06-09T02:17:10.901Z,11.38
2018-06-09T02:18:10.773Z,11.39
2018-06-09T02:19:10.650Z,11.36
2018-06-09T02:20:10.528Z,11.41
2018-06-09T02:21:10.407Z,11.32
2018-06-09T02:22:10.282Z,11.36
2018-06-09T02:23:10.155Z,11.35
2018-06-09T02:24:10.032Z,11.38
2018-06-09T02:25:09.907Z,11.34
2018-06-09T02:26:09.783Z,11.36
2018-06-09T02:27:09.660Z,11.35
2018-06-09T02:28:09.537Z,11.32
2018-06-09T02:29:09.412Z,11.32
2018-06-09T02:30:09.290Z,11.35
2018-06-09T02:31:09.165Z,11.35
2018-06-09T02:32:09.041Z,11.31
2018-06-09T02:33:08.917Z,11.32
2018-06-09T02:34:08.796Z,11.32
2018-06-09T02:35:08.667Z,11.16
2018-06-09T02:36:08.548Z,11.19
2018-06-09T02:37:08.425Z,11.19
2018-06-09T02:38:08.298Z,11.25
2018-06-09T02:39:08.345Z,11.14
2018-06-09T02:40:08.052Z,11.21
2018-06-09T02:41:07.929Z,11.19
2018-06-09T02:42:07.801Z,11.20
2018-06-09T02:43:07.678Z,11.16
2018-06-09T02:44:07.558Z,11.21
2018-06-09T02:45:07.435Z,11.20
2018-06-09T02:46:07.304Z,11.10
2018-06-09T02:47:07.187Z,11.09
2018-06-09T02:48:07.059Z,11.07
2018-06-09T02:49:06.936Z,11.03
2018-06-09T02:50:06.811Z,11.01
2018-06-09T02:51:06.687Z,11.01
2018-06-09T02:52:06.565Z,11.11
2018-06-09T02:53:06.440Z,11.03
2018-06-09T02:54:06.315Z,10.99
2018-06-09T02:55:06.190Z,10.99
2018-06-09T02:56:06.068Z,11.02
2018-06-09T02:57:05.947Z,11.11
2018-06-09T02:58:05.819Z,11.10
2018-06-09T02:59:05.696Z,11.27
2018-06-09T03:00:05.571Z,11.21
2018-06-09T03:01:05.449Z,11.16
2018-06-09T03:02:05.323Z,11.27
2018-06-09T03:03:05.197Z,11.27
2018-06-09T03:04:05.076Z,11.24
2018-06-09T03:05:04.953Z,11.24
2018-06-09T03:06:04.827Z,11.20
2018-06-09T03:07:04.705Z,11.24
2018-06-09T03:08:04.578Z,11.27
2018-06-09T03:09:04.455Z,11.14
2018-06-09T03:10:04.332Z,11.19
2018-06-09T03:11:04.207Z,11.16
2018-06-09T03:12:04.083Z,11.17
2018-06-09T03:13:03.960Z,11.19
2018-06-09T03:14:03.839Z,11.21
2018-06-09T03:15:03.713Z,11.24
2018-06-09T03:16:03.588Z,11.29
2018-06-09T03:17:03.464Z,11.32
2018-06-09T03:18:03.339Z,11.16
2018-06-09T03:19:03.217Z,11.16
2018-06-09T03:20:03.094Z,11.21
2018-06-09T03:21:02.968Z,11.24
2018-06-09T03:22:02.845Z,11.27
2018-06-09T03:23:02.721Z,11.24
2018-06-09T03:24:02.598Z,11.24
2018-06-09T03:25:02.478Z,11.20
2018-06-09T03:26:02.348Z,11.24
2018-06-09T03:27:02.225Z,11.11
2018-06-09T03:28:02.102Z,11.17
2018-06-09T03:29:01.979Z,11.13
2018-06-09T03:30:01.853Z,11.19
2018-06-09T03:31:01.729Z,11.09
2018-06-09T03:32:01.605Z,10.99
2018-06-09T03:33:01.485Z,11.07
2018-06-09T03:34:01.357Z,11.03
2018-06-09T03:35:01.234Z,11.01
2018-06-09T03:36:01.111Z,11.06
2018-06-09T03:37:00.985Z,11.02
2018-06-09T03:38:00.862Z,11.01
2018-06-09T03:39:00.739Z,11.03
2018-06-09T03:40:00.613Z,10.99
2018-06-09T03:41:01.286Z,10.94
2018-06-09T03:42:00.476Z,10.86
2018-06-09T03:43:00.254Z,10.88
2018-06-09T03:44:00.119Z,10.91
2018-06-09T03:44:59.993Z,10.98
2018-06-09T03:45:59.869Z,11.01
2018-06-09T03:46:59.747Z,11.01
2018-06-09T03:47:59.621Z,11.01
2018-06-09T03:48:59.498Z,11.16
2018-06-09T03:49:59.376Z,11.14
2018-06-09T03:50:59.252Z,11.25
2018-06-09T03:51:59.128Z,11.10
2018-06-09T03:52:59.003Z,11.14
2018-06-09T03:53:58.878Z,11.17
2018-06-09T03:54:58.755Z,11.20
2018-06-09T03:55:58.632Z,11.20
2018-06-09T03:56:58.513Z,11.27
2018-06-09T03:57:58.382Z,11.14
2018-06-09T03:58:58.259Z,11.29
2018-06-09T03:59:58.136Z,11.25
2018-06-09T04:00:58.014Z,11.17
2018-06-09T04:01:57.886Z,11.24
2018-06-09T04:02:57.762Z,11.16
2018-06-09T04:03:57.640Z,11.13
2018-06-09T04:04:57.520Z,11.02
2018-06-09T04:05:57.392Z,10.94
2018-06-09T04:06:57.271Z,10.99
2018-06-09T04:07:57.146Z,10.95
2018-06-09T04:08:57.020Z,11.02
2018-06-09T04:09:56.898Z,10.89
2018-06-09T04:10:56.774Z,10.94
2018-06-09T04:11:56.650Z,10.81
2018-06-09T04:12:56.526Z,10.83
2018-06-09T04:13:56.399Z,10.81
2018-06-09T04:14:56.279Z,10.76
2018-06-09T04:15:56.152Z,10.84
2018-06-09T04:16:56.046Z,10.86
2018-06-09T04:17:55.909Z,10.86
2018-06-09T04:18:55.782Z,10.95
2018-06-09T04:19:55.659Z,10.91
2018-06-09T04:20:55.540Z,11.03
2018-06-09T04:21:55.409Z,10.96
2018-06-09T04:22:55.287Z,10.99
2018-06-09T04:23:55.161Z,10.98
2018-06-09T04:24:55.037Z,10.96
2018-06-09T04:25:54.913Z,11.02
2018-06-09T04:26:54.787Z,10.99
2018-06-09T04:27:54.663Z,11.02
2018-06-09T04:28:54.542Z,10.98
2018-06-09T04:29:54.414Z,11.01
2018-06-09T04:30:54.293Z,11.11
2018-06-09T04:31:54.168Z,11.20
2018-06-09T04:32:54.048Z,11.21
2018-06-09T04:33:53.943Z,11.20
2018-06-09T04:34:53.799Z,11.31
2018-06-09T04:35:53.674Z,11.35
2018-06-09T04:36:53.551Z,11.39
2018-06-09T04:37:53.429Z,11.49
2018-06-09T04:38:53.302Z,11.64
2018-06-09T04:39:53.219Z,11.70
2018-06-09T04:40:53.054Z,11.68
2018-06-09T04:41:52.937Z,11.82
2018-06-09T04:42:52.810Z,11.80
2018-06-09T04:43:52.685Z,11.80
2018-06-09T04:44:52.564Z,11.82
2018-06-09T04:45:52.441Z,11.86
2018-06-09T04:46:52.315Z,11.86
2018-06-09T04:47:52.192Z,11.86
2018-06-09T04:48:52.068Z,12.05
2018-06-09T04:49:51.943Z,11.99
2018-06-09T04:50:51.819Z,12.11
2018-06-09T04:51:51.699Z,12.06
2018-06-09T04:52:51.577Z,12.09
2018-06-09T04:53:51.453Z,12.09
2018-06-09T04:54:51.327Z,12.39
2018-06-09T04:55:51.203Z,12.33
2018-06-09T04:56:51.083Z,12.46
2018-06-09T04:57:50.958Z,12.52
2018-06-09T04:58:50.833Z,12.45
2018-06-09T04:59:50.713Z,12.39
2018-06-09T05:00:50.589Z,12.33
2018-06-09T05:01:50.465Z,12.33
2018-06-09T05:02:50.340Z,12.34
2018-06-09T05:03:50.216Z,12.27
2018-06-09T05:04:50.095Z,12.37
2018-06-09T05:05:49.972Z,12.37
2018-06-09T05:06:49.850Z,12.49
2018-06-09T05:07:49.726Z,12.63
2018-06-09T05:08:49.602Z,12.82
2018-06-09T05:09:49.479Z,12.93
2018-06-09T05:10:49.356Z,13.00
2018-06-09T05:11:49.233Z,13.11
2018-06-09T05:12:49.109Z,13.25
2018-06-09T05:13:48.986Z,13.29
2018-06-09T05:14:48.866Z,13.25
2018-06-09T05:15:48.746Z,13.27
2018-06-09T05:16:48.619Z,13.24
2018-06-09T05:17:48.494Z,13.24
2018-06-09T05:18:48.375Z,13.30
2018-06-09T05:19:48.251Z,13.32
2018-06-09T05:20:48.130Z,13.41
2018-06-09T05:21:48.008Z,13.32
2018-06-09T05:22:47.882Z,13.32
2018-06-09T05:23:47.760Z,13.30
2018-06-09T05:24:47.637Z,13.47
2018-06-09T05:25:47.516Z,13.56
2018-06-09T05:26:47.392Z,13.44
2018-06-09T05:27:47.269Z,13.58
2018-06-09T05:28:47.145Z,13.46
2018-06-09T05:29:47.025Z,13.54
2018-06-09T05:30:46.923Z,13.61
2018-06-09T05:31:46.780Z,13.55
2018-06-09T05:32:46.657Z,13.63
2018-06-09T05:33:46.534Z,13.58
2018-06-09T05:34:46.417Z,13.61
2018-06-09T05:35:46.290Z,13.76
2018-06-09T05:36:46.165Z,13.88
2018-06-09T05:37:46.041Z,13.96
2018-06-09T05:38:45.920Z,13.98
2018-06-09T05:39:45.798Z,14.06
2018-06-09T05:40:45.674Z,13.99
2018-06-09T05:41:45.551Z,13.95
2018-06-09T05:42:45.428Z,13.98
2018-06-09T05:43:45.306Z,14.12
2018-06-09T05:44:45.183Z,14.14
2018-06-09T05:45:45.060Z,14.19
2018-06-09T05:46:44.937Z,14.09
2018-06-09T05:47:44.817Z,14.10
2018-06-09T05:48:44.694Z,14.10
2018-06-09T05:49:44.571Z,14.21
2018-06-09T05:50:44.448Z,14.19
2018-06-09T05:51:44.326Z,14.21
2018-06-09T05:52:44.202Z,14.20
2018-06-09T05:53:44.084Z,14.31
2018-06-09T05:54:43.961Z,14.27
2018-06-09T05:55:43.844Z,14.32
2018-06-09T05:56:43.716Z,14.35
2018-06-09T05:57:43.594Z,14.34
2018-06-09T05:58:43.470Z,14.20
2018-06-09T05:59:43.348Z,14.28
2018-06-09T06:00:43.229Z,14.39
2018-06-09T06:01:43.104Z,14.46
2018-06-09T06:02:42.981Z,14.49
2018-06-09T06:03:42.863Z,14.38
2018-06-09T06:04:42.737Z,14.49
2018-06-09T06:05:42.615Z,14.61
2018-06-09T06:06:42.492Z,14.68
2018-06-09T06:07:42.431Z,14.91
2018-06-09T06:08:42.252Z,15.01
2018-06-09T06:09:42.135Z,15.03
2018-06-09T06:10:42.038Z,15.06
2018-06-09T06:11:41.885Z,15.03
2018-06-09T06:12:41.763Z,15.05
2018-06-09T06:13:41.640Z,15.11
2018-06-09T06:14:41.518Z,15.08
2018-06-09T06:15:41.396Z,15.28
2018-06-09T06:16:41.275Z,15.28
2018-06-09T06:17:41.154Z,15.19
2018-06-09T06:18:41.052Z,15.20
2018-06-09T06:19:40.910Z,15.41
2018-06-09T06:20:40.789Z,15.39
2018-06-09T06:21:40.667Z,15.41
2018-06-09T06:22:40.593Z,15.45
2018-06-09T06:23:40.423Z,15.38
2018-06-09T06:24:40.304Z,15.33
2018-06-09T06:25:40.183Z,15.46
2018-06-09T06:26:40.068Z,15.63
2018-06-09T06:27:39.940Z,15.68
2018-06-09T06:28:39.825Z,15.70
2018-06-09T06:29:39.692Z,15.84
2018-06-09T06:30:39.574Z,15.93
2018-06-09T06:31:39.451Z,16.14
2018-06-09T06:32:39.330Z,16.16
2018-06-09T06:33:39.235Z,16.03
2018-06-09T06:34:39.089Z,15.68
2018-06-09T06:35:38.967Z,15.61
2018-06-09T06:36:38.846Z,15.74
2018-06-09T06:37:38.723Z,15.88
2018-06-09T06:38:38.603Z,16.03
2018-06-09T06:39:38.480Z,16.23
2018-06-09T06:40:38.362Z,16.22
2018-06-09T06:41:38.240Z,16.04
2018-06-09T06:42:38.119Z,16.12
2018-06-09T06:43:38.022Z,16.16
2018-06-09T06:44:37.878Z,16.22
2018-06-09T06:45:37.753Z,16.20
2018-06-09T06:46:37.632Z,16.07
2018-06-09T06:47:37.522Z,16.00
2018-06-09T06:48:37.394Z,16.14
2018-06-09T06:49:37.274Z,16.18
2018-06-09T06:50:37.150Z,16.23
2018-06-09T06:51:37.028Z,16.16
2018-06-09T06:52:36.909Z,16.30
2018-06-09T06:53:36.787Z,16.30
2018-06-09T06:54:36.664Z,16.48
2018-06-09T06:55:36.560Z,16.41
2018-06-09T06:56:36.488Z,16.34
2018-06-09T06:57:36.316Z,16.59
2018-06-09T06:58:36.192Z,16.70
2018-06-09T06:59:36.083Z,16.80
2018-06-09T07:00:35.942Z,16.96
2018-06-09T07:01:35.822Z,17.06
2018-06-09T07:02:35.698Z,17.13
2018-06-09T07:03:35.579Z,16.83
2018-06-09T07:04:35.460Z,16.78
2018-06-09T07:05:35.336Z,17.00
2018-06-09T07:06:35.219Z,17.18
2018-06-09T07:07:35.101Z,17.22
2018-06-09T07:08:34.974Z,17.32
2018-06-09T07:09:34.856Z,17.22
2018-06-09T07:10:34.733Z,17.07
2018-06-09T07:11:34.615Z,17.00
2018-06-09T07:12:34.494Z,17.04
2018-06-09T07:13:34.388Z,17.13
2018-06-09T07:14:34.253Z,17.06
2018-06-09T07:15:34.199Z,16.93
2018-06-09T07:16:34.012Z,16.96
2018-06-09T07:17:34.053Z,16.95
2018-06-09T07:18:33.814Z,16.96
2018-06-09T07:19:33.717Z,17.18
2018-06-09T07:20:33.532Z,17.15
2018-06-09T07:21:33.735Z,16.96
2018-06-09T07:22:33.289Z,17.14
2018-06-09T07:23:33.194Z,16.86
2018-06-09T07:24:33.048Z,16.86
2018-06-09T07:25:32.926Z,16.99
2018-06-09T07:26:32.808Z,16.96
2018-06-09T07:27:32.688Z,17.10
2018-06-09T07:28:32.641Z,17.20
2018-06-09T07:29:32.455Z,17.28
2018-06-09T07:30:32.328Z,17.36
2018-06-09T07:31:32.206Z,17.30
2018-06-09T07:32:32.101Z,17.43
2018-06-09T07:33:31.969Z,17.57
2018-06-09T07:34:31.849Z,17.50
2018-06-09T07:35:31.728Z,17.53
2018-06-09T07:36:31.606Z,17.63
2018-06-09T07:37:31.501Z,17.95
2018-06-09T07:38:31.365Z,18.06
2018-06-09T07:39:31.303Z,17.99
2018-06-09T07:40:31.130Z,17.95
2018-06-09T07:41:31.005Z,18.04
2018-06-09T07:42:30.887Z,18.00
2018-06-09T07:43:30.767Z,18.09
2018-06-09T07:44:30.648Z,18.18
2018-06-09T07:45:30.528Z,18.15
2018-06-09T07:46:30.414Z,18.34
2018-06-09T07:47:30.289Z,18.34
2018-06-09T07:48:30.169Z,18.19
2018-06-09T07:49:30.051Z,18.31
2018-06-09T07:50:29.928Z,18.47
2018-06-09T07:51:29.811Z,18.47
2018-06-09T07:52:29.691Z,18.55
2018-06-09T07:53:29.589Z,18.52
2018-06-09T07:54:29.451Z,18.64
2018-06-09T07:55:29.330Z,18.46
2018-06-09T07:56:29.210Z,18.49
2018-06-09T07:57:29.092Z,18.47
2018-06-09T07:58:28.972Z,18.46
2018-06-09T07:59:28.895Z,18.42
2018-06-09T08:00:28.732Z,18.47
2018-06-09T08:01:28.612Z,18.80
2018-06-09T08:02:28.613Z,18.84
2018-06-09T08:03:28.376Z,18.65
2018-06-09T08:04:28.256Z,18.57
